Kimballs, Vermont
Current Conditions -  °F | °C
As of 2:54 AM on Friday 26 Dec 2014 (Local Time) from KBTV Reporting Station
Overcast Overcast  
Wind Chill: 37°   Ceiling: 4500
Heat Index: 42°   Visibility: 10mi
Dew Point: 26°   Wind: 8mph
Humidity: 53%   Direction: 260°W
Pressure: 30.02"   Gusts: 25mph
Location:  44.2438°N, 73.1915°W
Report Text: KBTV 260754Z AUTO 26007G22KT 10SM OVC045 06/M03 A3002 RMK AO2 SLP167 T00561033
Loading
Personal Weather Stations






























Interactive Weather Map New forecast layout! Learn more

10-Day Weather Forecast

Advertisements
Track Severe Weather on mobile